Time;durP1;ratioP1;P1;durP2;ratioP2;P2;SDS_P1;SDS_P2;PMS_P1;PMS_P2;Temp;Humidity;BMP_temperature;BMP_pressure;BME280_temperature;BME280_humidity;BME280_pressure;Samples;Min_cycle;Max_cycle;Signal;HPM_P1;HPM_P2
2024/01/17 00:01:59;;;;;;;24.52;13.10;;;;;;;;;;5072391;28;20056;-68
2024/01/17 00:04:46;;;;;;;25.33;14.43;;;;;;;;;;5054132;28;20108;-69
2024/01/17 00:07:32;;;;;;;23.17;13.25;;;;;;;;;;5049671;28;20021;-68
2024/01/17 00:10:18;;;;;;;25.40;16.02;;;;;;;;;;5073357;28;20534;-69
2024/01/17 00:13:04;;;;;;;29.88;16.25;;;;;;;;;;5072818;28;20016;-69
2024/01/17 00:15:49;;;;;;;21.58;13.77;;;;;;;;;;5072975;28;20025;-69
2024/01/17 00:18:35;;;;;;;22.50;13.27;;;;;;;;;;5072476;28;20494;-69
2024/01/17 00:21:21;;;;;;;25.60;15.13;;;;;;;;;;5072706;28;20098;-69
2024/01/17 00:24:06;;;;;;;24.60;16.10;;;;;;;;;;5072767;28;20025;-69
2024/01/17 00:26:52;;;;;;;22.75;13.70;;;;;;;;;;5072189;28;20017;-69
2024/01/17 00:29:37;;;;;;;27.15;13.85;;;;;;;;;;5072428;28;20033;-69
2024/01/17 00:32:24;;;;;;;18.67;13.13;;;;;;;;;;5072389;28;20067;-69
2024/01/17 00:35:09;;;;;;;24.20;12.00;;;;;;;;;;5057022;28;20154;-69
2024/01/17 00:37:55;;;;;;;28.85;13.48;;;;;;;;;;5072314;28;20035;-68
2024/01/17 00:40:41;;;;;;;26.38;12.77;;;;;;;;;;5072302;28;20090;-69
2024/01/17 00:43:27;;;;;;;19.80;12.43;;;;;;;;;;5073633;28;20078;-69
2024/01/17 00:46:13;;;;;;;26.35;14.73;;;;;;;;;;5072153;28;20062;-68
2024/01/17 00:48:58;;;;;;;28.90;13.73;;;;;;;;;;5072092;28;20050;-69
2024/01/17 00:51:44;;;;;;;16.90;11.10;;;;;;;;;;5072093;28;20024;-68
2024/01/17 00:54:29;;;;;;;24.30;15.38;;;;;;;;;;5071819;28;20542;-69
2024/01/17 00:57:15;;;;;;;23.48;13.88;;;;;;;;;;5072147;28;20387;-68
2024/01/17 01:00:01;;;;;;;24.88;14.63;;;;;;;;;;5072341;28;20074;-69
2024/01/17 01:02:46;;;;;;;21.65;11.85;;;;;;;;;;5072623;28;20031;-69
2024/01/17 01:05:32;;;;;;;18.95;11.70;;;;;;;;;;5071972;28;20021;-69
2024/01/17 01:08:18;;;;;;;28.02;15.13;;;;;;;;;;5071909;28;20025;-68
2024/01/17 01:11:03;;;;;;;22.00;12.52;;;;;;;;;;5072365;28;20031;-69
2024/01/17 01:13:49;;;;;;;23.63;14.93;;;;;;;;;;5072892;28;20028;-69
2024/01/17 01:16:34;;;;;;;29.25;14.05;;;;;;;;;;5072462;28;20032;-68
2024/01/17 01:19:20;;;;;;;21.15;11.68;;;;;;;;;;5072617;28;20567;-68
2024/01/17 01:22:06;;;;;;;19.42;14.07;;;;;;;;;;5070309;28;20029;-68
2024/01/17 01:24:51;;;;;;;26.02;11.45;;;;;;;;;;5070227;28;20031;-68
2024/01/17 01:27:37;;;;;;;22.23;12.05;;;;;;;;;;5072178;28;20024;-68
2024/01/17 01:30:23;;;;;;;32.88;15.63;;;;;;;;;;5072162;28;20032;-68
2024/01/17 01:33:08;;;;;;;30.05;13.23;;;;;;;;;;5071566;28;20598;-68
2024/01/17 01:35:54;;;;;;;23.92;13.07;;;;;;;;;;5058011;28;20378;-69
2024/01/17 01:38:39;;;;;;;24.33;11.68;;;;;;;;;;5074916;28;20077;-68
2024/01/17 01:41:25;;;;;;;34.55;15.00;;;;;;;;;;5075518;28;20059;-69
2024/01/17 01:44:11;;;;;;;23.75;14.63;;;;;;;;;;5075701;28;20032;-69
2024/01/17 01:46:57;;;;;;;29.15;13.25;;;;;;;;;;5060220;28;20056;-68
2024/01/17 01:49:43;;;;;;;25.40;12.93;;;;;;;;;;5075512;28;20520;-69
2024/01/17 01:52:28;;;;;;;24.20;12.25;;;;;;;;;;5076271;28;20031;-68
2024/01/17 01:55:14;;;;;;;23.48;11.50;;;;;;;;;;5075765;28;20401;-68
2024/01/17 01:58:00;;;;;;;31.02;14.70;;;;;;;;;;5060487;28;20020;-68
2024/01/17 02:00:46;;;;;;;32.90;14.90;;;;;;;;;;5075530;28;20028;-69
2024/01/17 02:03:32;;;;;;;22.60;12.02;;;;;;;;;;5076191;28;20017;-68
2024/01/17 02:06:19;;;;;;;24.42;12.45;;;;;;;;;;5074635;28;20103;-68
2024/01/17 02:09:05;;;;;;;30.48;14.45;;;;;;;;;;5061103;28;20020;-69
2024/01/17 02:11:50;;;;;;;22.58;12.50;;;;;;;;;;5074873;28;20086;-69
2024/01/17 02:14:39;;;;;;;33.85;14.13;;;;;;;;;;5072072;28;20037;-68
2024/01/17 02:17:25;;;;;;;37.08;13.73;;;;;;;;;;5071575;28;20060;-68
2024/01/17 02:20:11;;;;;;;28.80;13.32;;;;;;;;;;5075078;28;20086;-69
2024/01/17 02:22:56;;;;;;;41.85;16.13;;;;;;;;;;5071630;28;20029;-68
2024/01/17 02:25:42;;;;;;;26.90;12.40;;;;;;;;;;5074917;28;20025;-68
2024/01/17 02:28:30;;;;;;;22.55;11.85;;;;;;;;;;5074972;28;20103;-69
2024/01/17 02:31:15;;;;;;;23.20;10.90;;;;;;;;;;5060590;28;20024;-69
2024/01/17 02:34:01;;;;;;;18.10;10.15;;;;;;;;;;5072394;28;20020;-68
2024/01/17 02:36:47;;;;;;;21.83;12.00;;;;;;;;;;5059594;28;20021;-68
2024/01/17 02:39:32;;;;;;;25.38;12.73;;;;;;;;;;5053932;28;20075;-68
2024/01/17 02:42:18;;;;;;;25.20;10.98;;;;;;;;;;5061702;28;20517;-68
2024/01/17 02:45:04;;;;;;;16.50;9.57;;;;;;;;;;5062096;28;20025;-68
2024/01/17 02:47:50;;;;;;;21.38;9.57;;;;;;;;;;5039798;28;20076;-69
2024/01/17 02:50:35;;;;;;;18.02;9.85;;;;;;;;;;5061488;28;20016;-68
2024/01/17 02:53:21;;;;;;;18.90;9.27;;;;;;;;;;5073375;28;20027;-68
2024/01/17 02:56:07;;;;;;;16.88;8.77;;;;;;;;;;5059390;28;20036;-68
2024/01/17 02:58:52;;;;;;;18.08;9.50;;;;;;;;;;5052924;28;20410;-68
2024/01/17 03:01:38;;;;;;;19.50;9.10;;;;;;;;;;5062699;28;20021;-68
2024/01/17 03:04:23;;;;;;;17.42;9.10;;;;;;;;;;5061445;28;20021;-68
2024/01/17 03:07:09;;;;;;;24.85;11.80;;;;;;;;;;5062470;28;20543;-68
2024/01/17 03:09:55;;;;;;;17.10;8.75;;;;;;;;;;5070270;28;20604;-68
2024/01/17 03:12:40;;;;;;;13.50;7.03;;;;;;;;;;5058731;28;20162;-68
2024/01/17 03:15:26;;;;;;;17.23;8.95;;;;;;;;;;5054117;28;20406;-68
2024/01/17 03:18:13;;;;;;;22.92;9.20;;;;;;;;;;5072768;28;20021;-68
2024/01/17 03:21:03;;;;;;;20.80;9.77;;;;;;;;;;5072425;28;20036;-68
2024/01/17 03:23:49;;;;;;;18.30;8.32;;;;;;;;;;5059852;28;20057;-68
2024/01/17 03:26:34;;;;;;;18.48;7.50;;;;;;;;;;5052705;28;20017;-68
2024/01/17 03:29:20;;;;;;;12.07;6.57;;;;;;;;;;5067219;28;20024;-68
2024/01/17 03:32:06;;;;;;;12.30;7.05;;;;;;;;;;5073051;28;20025;-68
2024/01/17 03:34:51;;;;;;;19.08;9.75;;;;;;;;;;5073291;28;20457;-68
2024/01/17 03:37:37;;;;;;;19.55;6.47;;;;;;;;;;5073206;28;20115;-67
2024/01/17 03:40:22;;;;;;;10.68;6.13;;;;;;;;;;5071778;28;20073;-68
2024/01/17 03:43:08;;;;;;;17.27;6.18;;;;;;;;;;5053335;28;20499;-68
2024/01/17 03:45:57;;;;;;;8.65;5.20;;;;;;;;;;5061887;28;20111;-68
2024/01/17 03:48:42;;;;;;;13.48;7.13;;;;;;;;;;5053339;28;20032;-68
2024/01/17 03:51:28;;;;;;;7.38;4.07;;;;;;;;;;5066003;28;20514;-68
2024/01/17 03:54:14;;;;;;;17.60;6.88;;;;;;;;;;5071988;28;20020;-68
2024/01/17 03:57:00;;;;;;;11.55;7.63;;;;;;;;;;5073575;28;20024;-68
2024/01/17 03:59:45;;;;;;;13.10;5.60;;;;;;;;;;5054981;28;20021;-68
2024/01/17 04:02:31;;;;;;;9.60;4.28;;;;;;;;;;5057563;28;20028;-68
2024/01/17 04:05:20;;;;;;;9.88;5.13;;;;;;;;;;5073050;28;20028;-69
2024/01/17 04:08:06;;;;;;;7.70;5.15;;;;;;;;;;5071859;28;20082;-68
2024/01/17 04:10:51;;;;;;;18.20;5.10;;;;;;;;;;5073320;28;20081;-68
2024/01/17 04:13:37;;;;;;;9.95;3.58;;;;;;;;;;5071867;28;20429;-68
2024/01/17 04:16:22;;;;;;;7.85;4.53;;;;;;;;;;5069972;28;20082;-68
2024/01/17 04:19:08;;;;;;;11.65;4.55;;;;;;;;;;5070050;28;20109;-68
2024/01/17 04:21:56;;;;;;;7.07;4.07;;;;;;;;;;5072499;28;20087;-68
2024/01/17 04:24:43;;;;;;;7.47;3.78;;;;;;;;;;5062950;28;20675;-68
2024/01/17 04:27:31;;;;;;;6.75;3.50;;;;;;;;;;5072114;28;20044;-68
2024/01/17 04:30:16;;;;;;;9.18;2.85;;;;;;;;;;5072209;28;20020;-68
2024/01/17 04:33:02;;;;;;;11.05;4.03;;;;;;;;;;5069660;28;20027;-68
2024/01/17 04:35:48;;;;;;;8.05;4.70;;;;;;;;;;5053546;28;20037;-68
2024/01/17 04:38:33;;;;;;;7.20;4.82;;;;;;;;;;5037205;28;20025;-68
2024/01/17 04:41:20;;;;;;;7.50;3.72;;;;;;;;;;5054045;28;20045;-68
2024/01/17 04:44:05;;;;;;;14.77;4.97;;;;;;;;;;5052311;28;20112;-68
2024/01/17 04:46:51;;;;;;;7.80;3.83;;;;;;;;;;5057755;28;20116;-68
2024/01/17 04:49:37;;;;;;;12.30;4.30;;;;;;;;;;5052033;28;20366;-68
2024/01/17 04:52:23;;;;;;;7.22;3.10;;;;;;;;;;5066947;28;20028;-68
2024/01/17 04:55:08;;;;;;;6.32;4.63;;;;;;;;;;5052095;28;20091;-68
2024/01/17 04:57:54;;;;;;;4.93;2.70;;;;;;;;;;5072688;28;20111;-68
2024/01/17 05:00:44;;;;;;;13.55;4.60;;;;;;;;;;5068739;28;20037;-68
2024/01/17 05:03:29;;;;;;;12.05;5.05;;;;;;;;;;5037527;28;20025;-68
2024/01/17 05:06:15;;;;;;;13.82;4.55;;;;;;;;;;5058055;28;20082;-68
2024/01/17 05:09:03;;;;;;;6.45;3.67;;;;;;;;;;5053165;28;20021;-68
2024/01/17 05:11:48;;;;;;;10.00;4.82;;;;;;;;;;5059885;28;20020;-68
2024/01/17 05:14:34;;;;;;;20.08;5.72;;;;;;;;;;5066781;28;20469;-68
2024/01/17 05:17:19;;;;;;;8.48;4.30;;;;;;;;;;5055863;28;20025;-68
2024/01/17 05:20:06;;;;;;;12.52;4.93;;;;;;;;;;5059981;28;20490;-68
2024/01/17 05:22:51;;;;;;;25.25;5.75;;;;;;;;;;5049276;28;20122;-68
2024/01/17 05:25:37;;;;;;;13.30;4.70;;;;;;;;;;5055827;28;20029;-68
2024/01/17 05:28:23;;;;;;;25.63;6.32;;;;;;;;;;5081608;28;20027;-68
2024/01/17 05:31:09;;;;;;;13.88;5.97;;;;;;;;;;5096593;28;20020;-68
2024/01/17 05:33:55;;;;;;;13.23;4.93;;;;;;;;;;5072358;28;20107;-69
2024/01/17 05:36:43;;;;;;;7.03;5.28;;;;;;;;;;5054695;28;20105;-68
2024/01/17 05:39:29;;;;;;;15.07;5.28;;;;;;;;;;5062184;28;20509;-69
2024/01/17 05:42:14;;;;;;;14.30;5.97;;;;;;;;;;5075394;28;20502;-69
2024/01/17 05:45:00;;;;;;;6.97;5.30;;;;;;;;;;5073368;28;20024;-68
2024/01/17 05:47:46;;;;;;;13.95;5.47;;;;;;;;;;5057071;28;20091;-68
2024/01/17 05:50:31;;;;;;;12.68;5.68;;;;;;;;;;5054683;28;20056;-68
2024/01/17 05:53:17;;;;;;;10.40;4.82;;;;;;;;;;5055010;28;20021;-69
2024/01/17 05:56:03;;;;;;;11.60;5.97;;;;;;;;;;5073126;28;20029;-68
2024/01/17 05:58:49;;;;;;;9.10;5.63;;;;;;;;;;5074781;28;20417;-68
2024/01/17 06:01:35;;;;;;;12.73;5.35;;;;;;;;;;5060892;28;20031;-68
2024/01/17 06:04:20;;;;;;;16.58;6.57;;;;;;;;;;5075194;28;20553;-68
2024/01/17 06:07:06;;;;;;;13.57;6.88;;;;;;;;;;5074876;28;20029;-69
2024/01/17 06:09:52;;;;;;;29.20;7.53;;;;;;;;;;5056244;28;20021;-68
2024/01/17 06:12:37;;;;;;;16.23;7.10;;;;;;;;;;5063821;28;20051;-68
2024/01/17 06:15:23;;;;;;;14.10;5.97;;;;;;;;;;5054095;28;20482;-69
2024/01/17 06:18:08;;;;;;;18.45;7.97;;;;;;;;;;5066140;28;20398;-68
2024/01/17 06:20:54;;;;;;;18.92;7.07;;;;;;;;;;5074519;28;20078;-68
2024/01/17 06:23:40;;;;;;;13.20;6.72;;;;;;;;;;5071556;28;20025;-68
2024/01/17 06:26:25;;;;;;;10.63;5.10;;;;;;;;;;5074767;28;20024;-68
2024/01/17 06:29:11;;;;;;;13.25;6.32;;;;;;;;;;5073439;28;20024;-69
2024/01/17 06:31:57;;;;;;;16.63;8.13;;;;;;;;;;5075335;28;20028;-69
2024/01/17 06:34:43;;;;;;;13.45;6.47;;;;;;;;;;5073673;28;20033;-68
2024/01/17 06:37:29;;;;;;;12.15;6.47;;;;;;;;;;5075956;28;20520;-68
2024/01/17 06:40:15;;;;;;;15.63;7.03;;;;;;;;;;5074274;28;20500;-68
2024/01/17 06:43:00;;;;;;;13.70;6.78;;;;;;;;;;5058445;28;20112;-69
2024/01/17 06:45:46;;;;;;;21.95;6.53;;;;;;;;;;5062528;28;20023;-68
2024/01/17 06:48:32;;;;;;;15.07;7.75;;;;;;;;;;5076236;28;20032;-68
2024/01/17 06:51:17;;;;;;;13.40;6.75;;;;;;;;;;5060498;28;20397;-69
2024/01/17 06:54:03;;;;;;;23.20;8.10;;;;;;;;;;5061042;28;20035;-68
2024/01/17 06:56:49;;;;;;;16.02;9.13;;;;;;;;;;5075432;28;20486;-68
2024/01/17 06:59:34;;;;;;;15.25;8.55;;;;;;;;;;5059422;28;20031;-69
2024/01/17 07:02:20;;;;;;;24.77;8.30;;;;;;;;;;5073935;28;20024;-68
2024/01/17 07:05:06;;;;;;;15.90;8.48;;;;;;;;;;5073037;28;20086;-68
2024/01/17 07:07:52;;;;;;;18.92;8.18;;;;;;;;;;5070985;28;20090;-69
2024/01/17 07:10:39;;;;;;;21.10;8.60;;;;;;;;;;5073168;28;20105;-69
2024/01/17 07:13:24;;;;;;;19.58;10.20;;;;;;;;;;5067439;28;20108;-69
2024/01/17 07:16:14;;;;;;;35.33;10.60;;;;;;;;;;5073940;28;20486;-68
2024/01/17 07:19:00;;;;;;;20.20;8.73;;;;;;;;;;5061052;28;20094;-67
2024/01/17 07:21:45;;;;;;;23.38;8.68;;;;;;;;;;5060935;28;20020;-68
2024/01/17 07:24:31;;;;;;;22.50;10.10;;;;;;;;;;5060853;28;20670;-68
2024/01/17 07:27:16;;;;;;;22.67;10.23;;;;;;;;;;5073930;28;20028;-69
2024/01/17 07:30:02;;;;;;;25.00;9.85;;;;;;;;;;5074373;28;20048;-68
2024/01/17 07:32:48;;;;;;;22.48;10.38;;;;;;;;;;5070364;28;20051;-68
2024/01/17 07:35:34;;;;;;;18.30;9.05;;;;;;;;;;5067234;28;20374;-68
2024/01/17 07:38:19;;;;;;;20.73;8.98;;;;;;;;;;5058282;28;20083;-68
2024/01/17 07:41:05;;;;;;;20.27;9.00;;;;;;;;;;5058465;28;20033;-69
2024/01/17 07:43:51;;;;;;;22.83;9.93;;;;;;;;;;5063932;28;20473;-68
2024/01/17 07:46:36;;;;;;;18.08;9.38;;;;;;;;;;5072452;28;20139;-68
2024/01/17 07:49:22;;;;;;;19.67;9.30;;;;;;;;;;5070139;28;20027;-67
2024/01/17 07:52:07;;;;;;;23.48;10.27;;;;;;;;;;5072054;28;20070;-68
2024/01/17 07:54:53;;;;;;;25.52;12.30;;;;;;;;;;5072139;28;20529;-68
2024/01/17 07:57:39;;;;;;;22.00;11.07;;;;;;;;;;5066321;28;20040;-68
2024/01/17 08:00:25;;;;;;;20.33;10.98;;;;;;;;;;5058213;28;20024;-68
2024/01/17 08:03:10;;;;;;;18.98;11.18;;;;;;;;;;5060531;28;20020;-68
2024/01/17 08:05:56;;;;;;;13.43;7.57;;;;;;;;;;5070413;28;20024;-68
2024/01/17 08:08:42;;;;;;;20.42;10.57;;;;;;;;;;5072108;28;20031;-68
2024/01/17 08:11:28;;;;;;;17.40;9.00;;;;;;;;;;5072999;28;20488;-68
2024/01/17 08:14:14;;;;;;;17.58;10.65;;;;;;;;;;5071785;28;20035;-67
2024/01/17 08:17:01;;;;;;;19.02;9.25;;;;;;;;;;5072761;28;20020;-68
2024/01/17 08:19:47;;;;;;;16.55;9.38;;;;;;;;;;5071817;28;20028;-68
2024/01/17 08:22:33;;;;;;;20.58;11.02;;;;;;;;;;5073107;28;20103;-68
2024/01/17 08:25:18;;;;;;;17.05;9.32;;;;;;;;;;5072090;28;20028;-68
2024/01/17 08:28:04;;;;;;;15.13;8.48;;;;;;;;;;5072824;28;20458;-68
2024/01/17 08:30:50;;;;;;;21.25;9.75;;;;;;;;;;5072395;28;20393;-68
2024/01/17 08:33:36;;;;;;;17.73;9.60;;;;;;;;;;5071910;28;20031;-67
2024/01/17 08:36:23;;;;;;;25.00;11.52;;;;;;;;;;5071596;28;20025;-68
2024/01/17 08:39:08;;;;;;;24.13;11.75;;;;;;;;;;5058149;28;20420;-68
2024/01/17 08:41:54;;;;;;;27.98;13.32;;;;;;;;;;5067754;28;20448;-68
2024/01/17 08:44:42;;;;;;;29.00;12.82;;;;;;;;;;5065204;28;20017;-68
2024/01/17 08:47:28;;;;;;;26.60;13.38;;;;;;;;;;5109728;22;20075;-70
2024/01/17 08:50:14;;;;;;;35.95;14.48;;;;;;;;;;5078349;28;20024;-70
2024/01/17 08:52:59;;;;;;;31.52;15.93;;;;;;;;;;5091845;28;20031;-70
2024/01/17 08:55:46;;;;;;;39.15;17.13;;;;;;;;;;5108045;28;20067;-69
2024/01/17 08:58:32;;;;;;;29.02;15.25;;;;;;;;;;5112338;28;20408;-70
2024/01/17 09:01:17;;;;;;;34.03;15.23;;;;;;;;;;5112324;28;20107;-70
2024/01/17 09:04:03;;;;;;;28.13;14.07;;;;;;;;;;5073479;28;20409;-70
2024/01/17 09:06:49;;;;;;;34.15;14.98;;;;;;;;;;5072149;28;20081;-70
2024/01/17 09:09:35;;;;;;;32.38;14.93;;;;;;;;;;5063764;28;20512;-70
2024/01/17 09:12:22;;;;;;;17.52;9.82;;;;;;;;;;5072726;28;20028;-69
2024/01/17 09:15:08;;;;;;;31.45;13.85;;;;;;;;;;5083637;28;20514;-70
2024/01/17 09:17:54;;;;;;;25.75;13.05;;;;;;;;;;5072313;28;20486;-69
2024/01/17 09:20:40;;;;;;;36.60;15.85;;;;;;;;;;5081090;28;20024;-71
2024/01/17 09:23:25;;;;;;;30.38;15.80;;;;;;;;;;5071851;28;20031;-70
2024/01/17 09:26:11;;;;;;;32.17;13.20;;;;;;;;;;5077579;28;20031;-70
2024/01/17 09:28:57;;;;;;;35.33;14.73;;;;;;;;;;5092912;28;20016;-69
2024/01/17 09:31:43;;;;;;;31.92;14.88;;;;;;;;;;5092496;28;20016;-69
2024/01/17 09:34:29;;;;;;;34.10;16.35;;;;;;;;;;5101508;28;20046;-69
2024/01/17 09:37:15;;;;;;;36.65;15.85;;;;;;;;;;5096752;28;20140;-69
2024/01/17 09:40:00;;;;;;;29.73;15.05;;;;;;;;;;5111598;28;20165;-69
2024/01/17 09:42:46;;;;;;;45.60;17.10;;;;;;;;;;5112313;28;20023;-69
2024/01/17 09:45:32;;;;;;;43.13;17.15;;;;;;;;;;5111988;28;20054;-70
2024/01/17 09:48:18;;;;;;;46.85;17.52;;;;;;;;;;5072128;28;20036;-69
2024/01/17 09:51:04;;;;;;;44.40;16.65;;;;;;;;;;5061785;28;20390;-70
2024/01/17 09:53:53;;;;;;;52.40;16.65;;;;;;;;;;5071658;28;20035;-69
2024/01/17 09:56:39;;;;;;;31.17;14.80;;;;;;;;;;5042865;28;20029;-69
2024/01/17 09:59:28;;;;;;;41.47;15.05;;;;;;;;;;5074291;28;20035;-70
2024/01/17 10:02:14;;;;;;;43.38;18.05;;;;;;;;;;5059087;28;20020;-69
2024/01/17 10:04:59;;;;;;;40.78;15.43;;;;;;;;;;5083223;28;20084;-69
2024/01/17 10:07:45;;;;;;;40.92;16.60;;;;;;;;;;5060184;28;20031;-69
2024/01/17 10:10:31;;;;;;;42.08;18.27;;;;;;;;;;5079834;28;20493;-69
2024/01/17 10:13:16;;;;;;;38.70;15.25;;;;;;;;;;5074095;28;20036;-69
2024/01/17 10:16:03;;;;;;;45.63;17.90;;;;;;;;;;5081474;28;20082;-69
2024/01/17 10:18:49;;;;;;;41.90;17.35;;;;;;;;;;5059528;28;20481;-70
2024/01/17 10:21:35;;;;;;;36.13;15.60;;;;;;;;;;5086300;28;20020;-70
2024/01/17 10:24:21;;;;;;;38.17;17.50;;;;;;;;;;5080790;28;20120;-70
2024/01/17 10:27:07;;;;;;;44.10;17.15;;;;;;;;;;5075355;28;20028;-70
2024/01/17 10:29:52;;;;;;;51.83;16.90;;;;;;;;;;5074233;28;20104;-71
2024/01/17 10:32:38;;;;;;;41.20;17.13;;;;;;;;;;5078510;28;20020;-70
2024/01/17 10:35:24;;;;;;;37.22;16.05;;;;;;;;;;5094738;28;20023;-70
2024/01/17 10:38:10;;;;;;;31.33;13.43;;;;;;;;;;5114847;28;20027;-71
2024/01/17 10:41:06;;;;;;;35.13;13.93;;;;;;;;;;5108808;28;20428;-71
2024/01/17 10:43:53;;;;;;;31.00;12.27;;;;;;;;;;5060160;28;20178;-72
2024/01/17 10:46:40;;;;;;;25.67;8.95;;;;;;;;;;5073100;28;20103;-71
2024/01/17 10:49:25;;;;;;;21.02;6.85;;;;;;;;;;5063050;28;20024;-71
2024/01/17 10:52:14;;;;;;;15.45;6.25;;;;;;;;;;5072610;28;20056;-70
2024/01/17 10:55:04;;;;;;;24.77;7.68;;;;;;;;;;5071972;28;20034;-70
2024/01/17 10:57:50;;;;;;;21.30;6.55;;;;;;;;;;5072521;28;20494;-71
2024/01/17 11:00:39;;;;;;;8.68;4.88;;;;;;;;;;5068464;28;20065;-71
2024/01/17 11:03:28;;;;;;;5.68;3.10;;;;;;;;;;5085570;28;20081;-70
2024/01/17 11:06:15;;;;;;;7.90;2.90;;;;;;;;;;5093769;28;20024;-72
2024/01/17 11:09:01;;;;;;;30.33;14.65;;;;;;;;;;5083566;28;20454;-71
2024/01/17 11:11:48;;;;;;;16.45;8.18;;;;;;;;;;5072204;28;20086;-72
2024/01/17 11:14:35;;;;;;;9.60;2.97;;;;;;;;;;5076751;28;20477;-72
2024/01/17 11:17:22;;;;;;;5.35;2.45;;;;;;;;;;5072864;28;20028;-72
2024/01/17 11:20:08;;;;;;;4.05;2.65;;;;;;;;;;5081957;28;20015;-72
2024/01/17 11:22:56;;;;;;;3.90;2.83;;;;;;;;;;5076385;28;20039;-72
2024/01/17 11:25:42;;;;;;;11.00;3.20;;;;;;;;;;5073218;28;20052;-72
2024/01/17 11:28:34;;;;;;;7.65;3.50;;;;;;;;;;5083995;28;20484;-72
2024/01/17 11:31:45;;;;;;;8.35;3.20;;;;;;;;;;5058496;28;20032;-72
2024/01/17 11:34:30;;;;;;;5.18;2.00;;;;;;;;;;5071833;28;20023;-72
2024/01/17 11:37:54;;;;;;;5.97;2.42;;;;;;;;;;5077517;28;20024;-72
2024/01/17 11:40:41;;;;;;;9.07;2.03;;;;;;;;;;5075801;28;20449;-72
2024/01/17 11:43:35;;;;;;;6.43;2.53;;;;;;;;;;5097355;28;20055;-72
2024/01/17 11:46:21;;;;;;;4.15;1.90;;;;;;;;;;5097472;28;20024;-72
2024/01/17 11:49:14;;;;;;;2.95;1.85;;;;;;;;;;5113248;28;20027;-72
2024/01/17 11:52:00;;;;;;;2.90;1.98;;;;;;;;;;5097953;28;20046;-72
2024/01/17 11:54:48;;;;;;;5.93;2.00;;;;;;;;;;5112566;28;20499;-72
2024/01/17 11:57:37;;;;;;;5.00;2.30;;;;;;;;;;5096402;28;20023;-71
2024/01/17 12:00:25;;;;;;;7.75;2.58;;;;;;;;;;5088360;28;20028;-73
2024/01/17 12:03:27;;;;;;;4.93;2.75;;;;;;;;;;5088377;28;20465;-72
2024/01/17 12:06:14;;;;;;;8.45;3.38;;;;;;;;;;5072601;28;20024;-71
2024/01/17 12:08:59;;;;;;;8.35;3.92;;;;;;;;;;5082111;28;20087;-72
2024/01/17 12:11:46;;;;;;;12.18;3.83;;;;;;;;;;5111976;28;20438;-73
2024/01/17 12:14:34;;;;;;;7.05;3.80;;;;;;;;;;5054802;28;20024;-71
2024/01/17 12:17:20;;;;;;;4.40;2.75;;;;;;;;;;5072391;28;20037;-73
2024/01/17 12:20:07;;;;;;;5.85;2.53;;;;;;;;;;5069444;28;20031;-72
2024/01/17 12:22:53;;;;;;;4.95;2.83;;;;;;;;;;5070784;28;20039;-72
2024/01/17 12:25:39;;;;;;;3.55;2.17;;;;;;;;;;5071439;28;20077;-72
2024/01/17 12:28:28;;;;;;;3.05;2.10;;;;;;;;;;5096627;28;20027;-71
2024/01/17 12:31:16;;;;;;;4.13;2.50;;;;;;;;;;5077144;28;20016;-71
2024/01/17 12:34:01;;;;;;;10.02;2.28;;;;;;;;;;5084554;28;20027;-71
2024/01/17 12:36:47;;;;;;;4.85;2.05;;;;;;;;;;5087656;28;20035;-71
2024/01/17 12:39:36;;;;;;;8.80;3.10;;;;;;;;;;5082454;28;20480;-72
2024/01/17 12:42:23;;;;;;;10.55;3.42;;;;;;;;;;5108295;28;20420;-72
2024/01/17 12:45:09;;;;;;;8.63;4.32;;;;;;;;;;5111355;28;20164;-71
2024/01/17 12:47:55;;;;;;;15.77;5.47;;;;;;;;;;5112202;28;20103;-71
2024/01/17 12:50:52;;;;;;;10.55;6.38;;;;;;;;;;5109109;28;20016;-72
2024/01/17 12:53:41;;;;;;;10.77;7.50;;;;;;;;;;5075308;28;20064;-72
2024/01/17 12:56:27;;;;;;;13.68;6.75;;;;;;;;;;5097286;28;20036;-71
2024/01/17 12:59:15;;;;;;;10.88;7.10;;;;;;;;;;5091371;28;21937;-72
2024/01/17 13:02:04;;;;;;;10.57;6.47;;;;;;;;;;5080734;28;20012;-71
2024/01/17 13:05:09;;;;;;;15.80;6.68;;;;;;;;;;5078048;28;20077;-71
2024/01/17 13:08:15;;;;;;;13.85;5.82;;;;;;;;;;5077283;28;20082;-71
2024/01/17 13:11:03;;;;;;;9.13;5.72;;;;;;;;;;5075298;28;20091;-71
2024/01/17 13:13:52;;;;;;;11.20;6.97;;;;;;;;;;5112311;28;20053;-70
2024/01/17 13:16:38;;;;;;;10.05;5.28;;;;;;;;;;5083906;28;20024;-71
2024/01/17 13:19:24;;;;;;;12.52;7.13;;;;;;;;;;5071800;28;20025;-71
2024/01/17 13:22:09;;;;;;;12.20;7.15;;;;;;;;;;5082749;28;20106;-71
2024/01/17 13:24:55;;;;;;;18.67;7.20;;;;;;;;;;5073906;28;20036;-72
2024/01/17 13:27:41;;;;;;;18.50;8.27;;;;;;;;;;5076984;28;20020;-70
2024/01/17 13:30:28;;;;;;;16.75;9.25;;;;;;;;;;5079993;28;20531;-71
2024/01/17 13:33:15;;;;;;;19.85;10.32;;;;;;;;;;5074887;28;20044;-70
2024/01/17 13:36:00;;;;;;;19.25;9.90;;;;;;;;;;5082153;28;20417;-70
2024/01/17 13:38:46;;;;;;;22.27;11.40;;;;;;;;;;5078881;28;20020;-70
2024/01/17 13:41:33;;;;;;;16.63;10.48;;;;;;;;;;5086144;28;20128;-70
2024/01/17 13:44:23;;;;;;;19.35;10.57;;;;;;;;;;5086271;28;20024;-71
2024/01/17 13:47:08;;;;;;;24.15;10.13;;;;;;;;;;5082121;28;20081;-72
2024/01/17 13:49:57;;;;;;;18.48;9.18;;;;;;;;;;5078921;28;20508;-72
2024/01/17 13:52:47;;;;;;;22.27;11.50;;;;;;;;;;5079092;28;20024;-72
2024/01/17 13:55:32;;;;;;;21.63;11.27;;;;;;;;;;5072568;28;20027;-72
2024/01/17 13:58:18;;;;;;;25.70;11.65;;;;;;;;;;5081921;28;20035;-72
2024/01/17 14:01:08;;;;;;;20.65;11.07;;;;;;;;;;5081525;28;20023;-72
2024/01/17 14:03:53;;;;;;;20.60;11.55;;;;;;;;;;5085673;28;20030;-72
2024/01/17 14:06:39;;;;;;;23.08;11.02;;;;;;;;;;5084594;28;20029;-73
2024/01/17 14:09:26;;;;;;;22.98;11.68;;;;;;;;;;5054359;28;20058;-72
2024/01/17 14:12:11;;;;;;;24.77;11.30;;;;;;;;;;5053409;28;20032;-72
2024/01/17 14:14:57;;;;;;;22.40;10.02;;;;;;;;;;5086806;28;20056;-72
2024/01/17 14:17:43;;;;;;;21.15;11.02;;;;;;;;;;5086596;28;20024;-72
2024/01/17 14:20:28;;;;;;;25.23;10.23;;;;;;;;;;5085924;28;20111;-73
2024/01/17 14:23:14;;;;;;;15.45;10.52;;;;;;;;;;5080737;28;20027;-73
2024/01/17 14:26:00;;;;;;;19.75;10.90;;;;;;;;;;5064036;28;20016;-72
2024/01/17 14:28:46;;;;;;;19.88;10.80;;;;;;;;;;5077860;28;20023;-73
2024/01/17 14:31:32;;;;;;;25.75;12.57;;;;;;;;;;5080603;28;20031;-73
2024/01/17 14:34:20;;;;;;;21.10;11.35;;;;;;;;;;5067794;28;20527;-73
2024/01/17 14:37:06;;;;;;;21.65;11.20;;;;;;;;;;5084044;28;20036;-74
2024/01/17 14:39:55;;;;;;;22.48;10.85;;;;;;;;;;5083758;28;20029;-73
2024/01/17 14:42:40;;;;;;;23.58;10.77;;;;;;;;;;5068412;28;20055;-73
2024/01/17 14:45:26;;;;;;;28.05;11.43;;;;;;;;;;5064033;28;20025;-72
2024/01/17 14:48:12;;;;;;;25.30;11.35;;;;;;;;;;5141885;22;20036;-69
2024/01/17 14:50:58;;;;;;;26.25;11.40;;;;;;;;;;5083032;28;20095;-68
2024/01/17 14:53:43;;;;;;;22.45;10.50;;;;;;;;;;5081382;28;20032;-68
2024/01/17 14:56:29;;;;;;;17.75;11.00;;;;;;;;;;5076919;28;20036;-69
2024/01/17 14:59:15;;;;;;;29.98;12.20;;;;;;;;;;5083654;28;20020;-69
2024/01/17 15:02:00;;;;;;;27.88;10.95;;;;;;;;;;5080803;28;20055;-69
2024/01/17 15:04:46;;;;;;;23.58;11.60;;;;;;;;;;5081690;28;20111;-68
2024/01/17 15:07:32;;;;;;;26.90;11.15;;;;;;;;;;5065324;28;20435;-69
2024/01/17 15:10:18;;;;;;;23.00;10.70;;;;;;;;;;5078496;28;20059;-69
2024/01/17 15:13:03;;;;;;;20.00;10.48;;;;;;;;;;5069413;28;20056;-68
2024/01/17 15:15:49;;;;;;;20.88;12.05;;;;;;;;;;5087195;28;20027;-69
2024/01/17 15:18:35;;;;;;;17.52;11.30;;;;;;;;;;5084533;28;20021;-68
2024/01/17 15:21:20;;;;;;;19.70;10.63;;;;;;;;;;5081999;28;20024;-69
2024/01/17 15:24:08;;;;;;;21.15;10.10;;;;;;;;;;5088545;28;20040;-69
2024/01/17 15:26:53;;;;;;;23.88;11.15;;;;;;;;;;5094161;28;20034;-69
2024/01/17 15:29:42;;;;;;;25.60;10.73;;;;;;;;;;5081385;28;20016;-69
2024/01/17 15:32:28;;;;;;;26.48;11.98;;;;;;;;;;5093463;28;20023;-68
2024/01/17 15:35:14;;;;;;;27.40;11.60;;;;;;;;;;5093720;28;20031;-69
2024/01/17 15:38:00;;;;;;;24.95;11.73;;;;;;;;;;5093875;28;20031;-69
2024/01/17 15:40:55;;;;;;;29.27;11.77;;;;;;;;;;5093528;28;20027;-69
2024/01/17 15:43:41;;;;;;;25.23;12.43;;;;;;;;;;5093889;28;20032;-69
2024/01/17 15:46:26;;;;;;;22.83;11.48;;;;;;;;;;5079922;28;20020;-69
2024/01/17 15:49:12;;;;;;;27.00;13.10;;;;;;;;;;5082264;28;20032;-69
2024/01/17 15:51:58;;;;;;;25.55;12.25;;;;;;;;;;5078524;28;20020;-69
2024/01/17 15:54:43;;;;;;;28.65;12.20;;;;;;;;;;5093038;28;20032;-68
2024/01/17 15:57:29;;;;;;;27.23;13.57;;;;;;;;;;5092917;28;20020;-69
2024/01/17 16:00:15;;;;;;;25.50;13.20;;;;;;;;;;5093531;28;20446;-69
2024/01/17 16:03:00;;;;;;;27.30;11.98;;;;;;;;;;5092174;28;20027;-69
2024/01/17 16:05:46;;;;;;;31.63;12.60;;;;;;;;;;5093576;28;20031;-68
2024/01/17 16:08:32;;;;;;;32.67;13.35;;;;;;;;;;5078584;28;20024;-69
2024/01/17 16:11:17;;;;;;;28.98;14.90;;;;;;;;;;5058326;28;20024;-68
2024/01/17 16:14:03;;;;;;;34.30;13.80;;;;;;;;;;5056699;28;20024;-68
2024/01/17 16:16:52;;;;;;;23.30;12.43;;;;;;;;;;5074829;28;20456;-69
2024/01/17 16:19:38;;;;;;;36.47;14.60;;;;;;;;;;5072092;28;20056;-68